MSC Vienna — A8CI9 — position and weather

sailwx.info

Track history (hours):
 
Tides and Currents Weather Stations Pressure Air Temp Water Temp Dewpoint Dewpoint Depression Visibility Wind Speed Wind Dir Waves Ship Positions

MSC Vienna

Last reported at 2017-Sep-24 02:11 UTC. Time now 2017-Sep-26 04:01 UTC.
Position N 38°21' E 015°41'.

Length 260.1 m; beam 32.2 m; draft 12 m.

Type: Ship (hazmat cat A). MMSI: 636090654.

Date/timePositionNaut miles runAvg speedWind from/ knotsBaromVisibWave heightAir tempDewpointWater temp
2017-Sep-24 02:11N 38°21' E 015°41'811.9
2017-Sep-24 01:30N 38°13' E 015°37'811.6
2017-Sep-24 00:47N 38°05' E 015°36'3 8.7
2017-Sep-24 00:29N 38°02' E 015°36'4 8.8
2017-Sep-24 00:00N 37°58' E 015°35'1213.9
2017-Sep-23 23:08N 37°49' E 015°46'313.5
2017-Sep-23 22:54N 37°48' E 015°49'1213.5
2017-Sep-23 22:00N 37°45' E 016°04'  
2017-Sep-18 21:31N 40°55' E 028°36'0 3.2
2017-Sep-18 21:27N 40°54' E 028°36'0 0.3
2017-Sep-18 20:59N 40°54' E 028°36'0 0.1
2017-Sep-18 20:30N 40°54' E 028°36'0 0.1
2017-Sep-18 19:59N 40°55' E 028°36'0 0.1
2017-Sep-18 19:26N 40°54' E 028°36'0 0.2
2017-Sep-18 18:29N 40°55' E 028°36'0 0.3
2017-Sep-18 17:59N 40°54' E 028°36'0 0.2
2017-Sep-18 17:29N 40°54' E 028°37'0 0.3
2017-Sep-18 17:01N 40°55' E 028°37'0 0.5
2017-Sep-18 16:30N 40°55' E 028°37'11011.1
2017-Sep-18 06:33N 40°11' E 026°23'39 8.6
2017-Sep-18 01:59N 39°43' E 025°47'10414.4
2017-Sep-17 18:46N 38°11' E 024°45'5712.6
2017-Sep-17 14:16N 37°37' E 023°48'414.5
2017-Sep-17 14:00N 37°39' E 023°44'714.4
2017-Sep-17 13:30N 37°45' E 023°39'714.5
2017-Sep-17 13:00N 37°52' E 023°36'5 9.5
2017-Sep-17 12:30N 37°57' E 023°36'0 0.0
2017-Sep-17 12:00N 37°57' E 023°36'0 0.0
2017-Sep-17 11:30N 37°57' E 023°36'0 0.0
2017-Sep-17 11:00N 37°57' E 023°36'0 0.0
2017-Sep-17 10:30N 37°57' E 023°36'0 0.0
2017-Sep-17 10:00N 37°57' E 023°36'0 0.0
2017-Sep-17 09:27N 37°57' E 023°36'0 0.0
2017-Sep-17 09:00N 37°57' E 023°36'0 0.0
2017-Sep-17 08:27N 37°57' E 023°36'0 0.0
2017-Sep-17 08:00N 37°57' E 023°36'0 0.0
2017-Sep-17 07:30N 37°57' E 023°36'0 0.0
2017-Sep-17 07:00N 37°57' E 023°36'0 0.0
2017-Sep-17 06:30N 37°57' E 023°36'0 0.0
2017-Sep-17 06:00N 37°57' E 023°36'0 0.0
2017-Sep-17 05:30N 37°57' E 023°36'0 0.0
2017-Sep-17 05:00N 37°57' E 023°36'0 0.0
2017-Sep-17 04:30N 37°57' E 023°36'0 0.0
2017-Sep-17 04:00N 37°57' E 023°36'0 0.0
2017-Sep-17 03:30N 37°57' E 023°36'0 0.0
2017-Sep-17 03:00N 37°57' E 023°36'0 0.0
2017-Sep-17 02:27N 37°57' E 023°36'0 0.0
2017-Sep-17 02:00N 37°57' E 023°36'0 0.0
2017-Sep-17 01:30N 37°57' E 023°36'0 0.0
2017-Sep-17 01:01N 37°57' E 023°36'0 0.0
2017-Sep-17 00:30N 37°57' E 023°36'0 0.0
2017-Sep-17 00:00N 37°57' E 023°36'0 0.0
2017-Sep-16 23:30N 37°57' E 023°36'0 0.0
2017-Sep-16 23:00N 37°57' E 023°36'0 0.0
2017-Sep-16 22:30N 37°57' E 023°36'0 0.0
2017-Sep-16 22:00N 37°57' E 023°36'0 0.0
2017-Sep-16 21:30N 37°57' E 023°36'0 0.0
2017-Sep-16 21:00N 37°57' E 023°36'0 0.0
2017-Sep-16 20:30N 37°57' E 023°36'0 0.0
2017-Sep-16 20:00N 37°57' E 023°36'0 0.0
2017-Sep-16 19:27N 37°57' E 023°36'0 0.0
2017-Sep-16 19:00N 37°57' E 023°36'0 0.3
2017-Sep-16 18:30N 37°57' E 023°36'2 3.8
2017-Sep-16 18:00N 37°55' E 023°37'4 9.0
2017-Sep-16 17:31N 37°51' E 023°39'714.5
2017-Sep-16 17:00N 37°45' E 023°43'714.3
2017-Sep-16 16:30N 37°38' E 023°46'1014.4
2017-Sep-16 15:50N 37°29' E 023°50'614.6
2017-Sep-16 15:26N 37°23' E 023°49'1015.5
2017-Sep-16 14:48N 37°13' E 023°48'4115.4
2017-Sep-16 12:08N 36°33' E 023°37'43015.9
2017-Sep-15 09:02N 36°29' E 014°41'115.5
2017-Sep-15 09:00N 36°29' E 014°40'3415.7
2017-Sep-15 06:50N 36°43' E 014°02'1116.6
2017-Sep-15 06:11N 36°48' E 013°50'316.5
2017-Sep-15 06:00N 36°49' E 013°46'816.3
2017-Sep-15 05:30N 36°53' E 013°37'816.1
2017-Sep-15 05:00N 36°57' E 013°28'1016.1
2017-Sep-15 04:24N 37°01' E 013°18'616.2
2017-Sep-15 04:00N 37°04' E 013°10'816.2
2017-Sep-15 03:30N 37°08' E 013°01'816.1
2017-Sep-15 03:00N 37°12' E 012°53'4415.8
2017-Sep-15 00:12N 37°36' E 012°06'415.7
2017-Sep-14 23:56N 37°38' E 012°01'715.8
2017-Sep-14 23:30N 37°42' E 011°54'815.8
2017-Sep-14 22:59N 37°46' E 011°46'13415.5
2017-Sep-14 14:21N 39°00' E 009°23'615.4
2017-Sep-14 13:57N 39°03' E 009°16'715.3
2017-Sep-14 13:30N 39°07' E 009°09'510.3
2017-Sep-14 13:00N 39°12' E 009°06'2 4.0
2017-Sep-14 12:30N 39°13' E 009°04'0 0.5
2017-Sep-14 11:59N 39°13' E 009°04'0 0.0
2017-Sep-14 11:29N 39°13' E 009°04'0 0.0
2017-Sep-14 10:59N 39°13' E 009°04'0 0.0
2017-Sep-14 10:29N 39°13' E 009°04'0 0.0
2017-Sep-14 09:59N 39°13' E 009°04'0 0.0
2017-Sep-14 09:30N 39°13' E 009°04'0 0.0
2017-Sep-14 09:00N 39°13' E 009°04'0 0.0
2017-Sep-14 08:30N 39°13' E 009°04'0 0.0
2017-Sep-14 08:00N 39°13' E 009°04'0 0.0
2017-Sep-14 07:30N 39°13' E 009°04'0 0.0
2017-Sep-14 07:00N 39°13' E 009°04'0 0.0
2017-Sep-14 06:30N 39°13' E 009°04'0 0.0
2017-Sep-14 05:59N 39°13' E 009°04'0 0.0
2017-Sep-14 05:30N 39°13' E 009°04'0 0.0
2017-Sep-14 05:00N 39°13' E 009°04'2 3.5
2017-Sep-14 04:30N 39°12' E 009°06'1 1.2
2017-Sep-14 04:00N 39°11' E 009°06'4 8.0
2017-Sep-14 03:30N 39°07' E 009°07'917.0
2017-Sep-14 03:00N 38°59' E 009°09'917.9
2017-Sep-14 02:30N 38°51' E 009°02'  
Track history (hours):
 
Tides and Currents Weather Stations Pressure Air Temp Water Temp Dewpoint Dewpoint Depression Visibility Wind Speed Wind Dir Waves Ship Positions

MSC Vienna

Last reported at 2017-Sep-24 02:11 UTC. Time now 2017-Sep-26 04:01 UTC.
Position N 38°21' E 015°41'.

Length 260.1 m; beam 32.2 m; draft 12 m.

Type: Ship (hazmat cat A). MMSI: 636090654.

Date/timePositionNaut miles runAvg speedWind from/ knotsBaromVisibWave heightAir tempDewpointWater temp
2017-Sep-24 02:11N 38°21' E 015°41'811.9
2017-Sep-24 01:30N 38°13' E 015°37'811.6
2017-Sep-24 00:47N 38°05' E 015°36'3 8.7
2017-Sep-24 00:29N 38°02' E 015°36'4 8.8
2017-Sep-24 00:00N 37°58' E 015°35'1213.9
2017-Sep-23 23:08N 37°49' E 015°46'313.5
2017-Sep-23 22:54N 37°48' E 015°49'1213.5
2017-Sep-23 22:00N 37°45' E 016°04'  
2017-Sep-18 21:31N 40°55' E 028°36'0 3.2
2017-Sep-18 21:27N 40°54' E 028°36'0 0.3
2017-Sep-18 20:59N 40°54' E 028°36'0 0.1
2017-Sep-18 20:30N 40°54' E 028°36'0 0.1
2017-Sep-18 19:59N 40°55' E 028°36'0 0.1
2017-Sep-18 19:26N 40°54' E 028°36'0 0.2
2017-Sep-18 18:29N 40°55' E 028°36'0 0.3
2017-Sep-18 17:59N 40°54' E 028°36'0 0.2
2017-Sep-18 17:29N 40°54' E 028°37'0 0.3
2017-Sep-18 17:01N 40°55' E 028°37'0 0.5
2017-Sep-18 16:30N 40°55' E 028°37'11011.1
2017-Sep-18 06:33N 40°11' E 026°23'39 8.6
2017-Sep-18 01:59N 39°43' E 025°47'10414.4
2017-Sep-17 18:46N 38°11' E 024°45'5712.6
2017-Sep-17 14:16N 37°37' E 023°48'414.5
2017-Sep-17 14:00N 37°39' E 023°44'714.4
2017-Sep-17 13:30N 37°45' E 023°39'714.5
2017-Sep-17 13:00N 37°52' E 023°36'5 9.5
2017-Sep-17 12:30N 37°57' E 023°36'0 0.0
2017-Sep-17 12:00N 37°57' E 023°36'0 0.0
2017-Sep-17 11:30N 37°57' E 023°36'0 0.0
2017-Sep-17 11:00N 37°57' E 023°36'0 0.0
2017-Sep-17 10:30N 37°57' E 023°36'0 0.0
2017-Sep-17 10:00N 37°57' E 023°36'0 0.0
2017-Sep-17 09:27N 37°57' E 023°36'0 0.0
2017-Sep-17 09:00N 37°57' E 023°36'0 0.0
2017-Sep-17 08:27N 37°57' E 023°36'0 0.0
2017-Sep-17 08:00N 37°57' E 023°36'0 0.0
2017-Sep-17 07:30N 37°57' E 023°36'0 0.0
2017-Sep-17 07:00N 37°57' E 023°36'0 0.0
2017-Sep-17 06:30N 37°57' E 023°36'0 0.0
2017-Sep-17 06:00N 37°57' E 023°36'0 0.0
2017-Sep-17 05:30N 37°57' E 023°36'0 0.0
2017-Sep-17 05:00N 37°57' E 023°36'0 0.0
2017-Sep-17 04:30N 37°57' E 023°36'0 0.0
2017-Sep-17 04:00N 37°57' E 023°36'0 0.0
2017-Sep-17 03:30N 37°57' E 023°36'0 0.0
2017-Sep-17 03:00N 37°57' E 023°36'0 0.0
2017-Sep-17 02:27N 37°57' E 023°36'0 0.0
2017-Sep-17 02:00N 37°57' E 023°36'0 0.0
2017-Sep-17 01:30N 37°57' E 023°36'0 0.0
2017-Sep-17 01:01N 37°57' E 023°36'0 0.0
2017-Sep-17 00:30N 37°57' E 023°36'0 0.0
2017-Sep-17 00:00N 37°57' E 023°36'0 0.0
2017-Sep-16 23:30N 37°57' E 023°36'0 0.0
2017-Sep-16 23:00N 37°57' E 023°36'0 0.0
2017-Sep-16 22:30N 37°57' E 023°36'0 0.0
2017-Sep-16 22:00N 37°57' E 023°36'0 0.0
2017-Sep-16 21:30N 37°57' E 023°36'0 0.0
2017-Sep-16 21:00N 37°57' E 023°36'0 0.0
2017-Sep-16 20:30N 37°57' E 023°36'0 0.0
2017-Sep-16 20:00N 37°57' E 023°36'0 0.0
2017-Sep-16 19:27N 37°57' E 023°36'0 0.0
2017-Sep-16 19:00N 37°57' E 023°36'0 0.3
2017-Sep-16 18:30N 37°57' E 023°36'2 3.8
2017-Sep-16 18:00N 37°55' E 023°37'4 9.0
2017-Sep-16 17:31N 37°51' E 023°39'714.5
2017-Sep-16 17:00N 37°45' E 023°43'714.3
2017-Sep-16 16:30N 37°38' E 023°46'1014.4
2017-Sep-16 15:50N 37°29' E 023°50'614.6
2017-Sep-16 15:26N 37°23' E 023°49'1015.5
2017-Sep-16 14:48N 37°13' E 023°48'4115.4
2017-Sep-16 12:08N 36°33' E 023°37'43015.9
2017-Sep-15 09:02N 36°29' E 014°41'115.5
2017-Sep-15 09:00N 36°29' E 014°40'3415.7
2017-Sep-15 06:50N 36°43' E 014°02'1116.6
2017-Sep-15 06:11N 36°48' E 013°50'316.5
2017-Sep-15 06:00N 36°49' E 013°46'816.3
2017-Sep-15 05:30N 36°53' E 013°37'816.1
2017-Sep-15 05:00N 36°57' E 013°28'1016.1
2017-Sep-15 04:24N 37°01' E 013°18'616.2
2017-Sep-15 04:00N 37°04' E 013°10'816.2
2017-Sep-15 03:30N 37°08' E 013°01'816.1
2017-Sep-15 03:00N 37°12' E 012°53'4415.8
2017-Sep-15 00:12N 37°36' E 012°06'415.7
2017-Sep-14 23:56N 37°38' E 012°01'715.8
2017-Sep-14 23:30N 37°42' E 011°54'815.8
2017-Sep-14 22:59N 37°46' E 011°46'13415.5
2017-Sep-14 14:21N 39°00' E 009°23'615.4
2017-Sep-14 13:57N 39°03' E 009°16'715.3
2017-Sep-14 13:30N 39°07' E 009°09'510.3
2017-Sep-14 13:00N 39°12' E 009°06'2 4.0
2017-Sep-14 12:30N 39°13' E 009°04'0 0.5
2017-Sep-14 11:59N 39°13' E 009°04'0 0.0
2017-Sep-14 11:29N 39°13' E 009°04'0 0.0
2017-Sep-14 10:59N 39°13' E 009°04'0 0.0
2017-Sep-14 10:29N 39°13' E 009°04'0 0.0
2017-Sep-14 09:59N 39°13' E 009°04'0 0.0
2017-Sep-14 09:30N 39°13' E 009°04'0 0.0
2017-Sep-14 09:00N 39°13' E 009°04'0 0.0
2017-Sep-14 08:30N 39°13' E 009°04'0 0.0
2017-Sep-14 08:00N 39°13' E 009°04'0 0.0
2017-Sep-14 07:30N 39°13' E 009°04'0 0.0
2017-Sep-14 07:00N 39°13' E 009°04'0 0.0
2017-Sep-14 06:30N 39°13' E 009°04'0 0.0
2017-Sep-14 05:59N 39°13' E 009°04'0 0.0
2017-Sep-14 05:30N 39°13' E 009°04'0 0.0
2017-Sep-14 05:00N 39°13' E 009°04'2 3.5
2017-Sep-14 04:30N 39°12' E 009°06'1 1.2
2017-Sep-14 04:00N 39°11' E 009°06'4 8.0
2017-Sep-14 03:30N 39°07' E 009°07'917.0
2017-Sep-14 03:00N 38°59' E 009°09'917.9
2017-Sep-14 02:30N 38°51' E 009°02'  

Dump ship's entire track history